sensor_id;sensor_type;location;lat;lon;timestamp;P1;durP1;ratioP1;P2;durP2;ratioP2
72575;SDS011;60613;48.658;2.328;2023-11-22T10:41:19;10.93;;;4.30;;
72575;SDS011;60613;48.658;2.328;2023-11-22T10:43:46;16.13;;;4.78;;
72575;SDS011;60613;48.658;2.328;2023-11-22T10:46:12;13.05;;;4.40;;
72575;SDS011;60613;48.658;2.328;2023-11-22T10:48:38;10.00;;;4.70;;
72575;SDS011;60613;48.658;2.328;2023-11-22T10:51:05;11.50;;;4.45;;
72575;SDS011;60613;48.658;2.328;2023-11-22T10:53:35;9.97;;;4.40;;
72575;SDS011;60613;48.658;2.328;2023-11-22T10:56:13;9.35;;;4.30;;
72575;SDS011;60613;48.658;2.328;2023-11-22T10:58:43;11.05;;;4.15;;
72575;SDS011;60613;48.658;2.328;2023-11-22T11:01:17;10.77;;;4.75;;
72575;SDS011;60613;48.658;2.328;2023-11-22T11:04:01;9.00;;;4.20;;
72575;SDS011;60613;48.658;2.328;2023-11-22T11:06:32;10.97;;;4.70;;
72575;SDS011;60613;48.658;2.328;2023-11-22T11:08:59;11.15;;;4.45;;
72575;SDS011;60613;48.658;2.328;2023-11-22T11:11:27;9.45;;;4.15;;
72575;SDS011;60613;48.658;2.328;2023-11-22T11:13:54;12.88;;;4.22;;
72575;SDS011;60613;48.658;2.328;2023-11-22T11:16:20;9.40;;;4.20;;
72575;SDS011;60613;48.658;2.328;2023-11-22T11:18:48;8.25;;;3.97;;
72575;SDS011;60613;48.658;2.328;2023-11-22T11:21:15;9.18;;;4.05;;
72575;SDS011;60613;48.658;2.328;2023-11-22T11:23:41;7.88;;;4.00;;
72575;SDS011;60613;48.658;2.328;2023-11-22T11:26:16;8.57;;;4.00;;
72575;SDS011;60613;48.658;2.328;2023-11-22T11:28:46;9.73;;;3.92;;
72575;SDS011;60613;48.658;2.328;2023-11-22T11:31:15;8.95;;;3.60;;
72575;SDS011;60613;48.658;2.328;2023-11-22T11:36:15;7.60;;;3.80;;
72575;SDS011;60613;48.658;2.328;2023-11-22T11:38:46;8.17;;;4.00;;
72575;SDS011;60613;48.658;2.328;2023-11-22T11:41:14;10.50;;;3.95;;
72575;SDS011;60613;48.658;2.328;2023-11-22T11:46:10;7.78;;;3.58;;
72575;SDS011;60613;48.658;2.328;2023-11-22T11:48:37;8.88;;;3.50;;
72575;SDS011;60613;48.658;2.328;2023-11-22T11:51:02;7.87;;;3.67;;
72575;SDS011;60613;48.658;2.328;2023-11-22T11:53:28;7.10;;;3.30;;
72575;SDS011;60613;48.658;2.328;2023-11-22T11:55:56;7.90;;;3.40;;
72575;SDS011;60613;48.658;2.328;2023-11-22T11:58:23;7.63;;;3.08;;
72575;SDS011;60613;48.658;2.328;2023-11-22T12:00:50;7.22;;;3.20;;
72575;SDS011;60613;48.658;2.328;2023-11-22T12:03:17;7.90;;;3.27;;
72575;SDS011;60613;48.658;2.328;2023-11-22T12:05:46;7.35;;;3.47;;
72575;SDS011;60613;48.658;2.328;2023-11-22T12:08:14;7.13;;;3.08;;
72575;SDS011;60613;48.658;2.328;2023-11-22T12:10:43;7.55;;;3.20;;
72575;SDS011;60613;48.658;2.328;2023-11-22T12:13:16;8.50;;;3.30;;
72575;SDS011;60613;48.658;2.328;2023-11-22T12:15:42;7.47;;;3.20;;
72575;SDS011;60613;48.658;2.328;2023-11-22T12:18:08;6.40;;;3.10;;
72575;SDS011;60613;48.658;2.328;2023-11-22T12:20:33;6.97;;;3.17;;
72575;SDS011;60613;48.658;2.328;2023-11-22T12:23:00;6.32;;;2.80;;
72575;SDS011;60613;48.658;2.328;2023-11-22T12:25:27;7.13;;;2.97;;
72575;SDS011;60613;48.658;2.328;2023-11-22T12:27:55;6.18;;;2.80;;
72575;SDS011;60613;48.658;2.328;2023-11-22T12:30:28;6.57;;;3.10;;
72575;SDS011;60613;48.658;2.328;2023-11-22T12:32:56;7.25;;;3.08;;
72575;SDS011;60613;48.658;2.328;2023-11-22T12:35:22;5.78;;;2.60;;
72575;SDS011;60613;48.658;2.328;2023-11-22T12:37:48;5.88;;;2.55;;
72575;SDS011;60613;48.658;2.328;2023-11-22T12:40:14;6.70;;;3.00;;
72575;SDS011;60613;48.658;2.328;2023-11-22T12:42:49;5.97;;;2.70;;
72575;SDS011;60613;48.658;2.328;2023-11-22T12:45:34;6.40;;;2.80;;
72575;SDS011;60613;48.658;2.328;2023-11-22T12:48:19;6.73;;;2.87;;
72575;SDS011;60613;48.658;2.328;2023-11-22T12:50:49;5.80;;;2.50;;
72575;SDS011;60613;48.658;2.328;2023-11-22T12:53:15;5.90;;;2.47;;
72575;SDS011;60613;48.658;2.328;2023-11-22T12:55:44;6.70;;;2.70;;
72575;SDS011;60613;48.658;2.328;2023-11-22T12:58:11;6.47;;;2.40;;
72575;SDS011;60613;48.658;2.328;2023-11-22T13:00:40;6.22;;;2.55;;
72575;SDS011;60613;48.658;2.328;2023-11-22T13:03:07;5.85;;;2.42;;
72575;SDS011;60613;48.658;2.328;2023-11-22T13:05:35;6.70;;;2.70;;
72575;SDS011;60613;48.658;2.328;2023-11-22T13:08:01;5.70;;;2.40;;
72575;SDS011;60613;48.658;2.328;2023-11-22T13:10:28;5.60;;;2.30;;
72575;SDS011;60613;48.658;2.328;2023-11-22T13:12:55;7.38;;;2.53;;
72575;SDS011;60613;48.658;2.328;2023-11-22T13:15:22;8.30;;;2.30;;
72575;SDS011;60613;48.658;2.328;2023-11-22T13:17:48;5.82;;;2.30;;
72575;SDS011;60613;48.658;2.328;2023-11-22T13:20:15;5.97;;;2.00;;
72575;SDS011;60613;48.658;2.328;2023-11-22T13:22:41;7.50;;;2.70;;
72575;SDS011;60613;48.658;2.328;2023-11-22T13:25:10;6.55;;;2.20;;
72575;SDS011;60613;48.658;2.328;2023-11-22T13:27:38;7.03;;;2.08;;
72575;SDS011;60613;48.658;2.328;2023-11-22T13:30:05;7.37;;;2.27;;
72575;SDS011;60613;48.658;2.328;2023-11-22T13:32:32;6.05;;;2.30;;
72575;SDS011;60613;48.658;2.328;2023-11-22T13:34:58;7.25;;;2.38;;
72575;SDS011;60613;48.658;2.328;2023-11-22T13:37:24;6.80;;;2.33;;
72575;SDS011;60613;48.658;2.328;2023-11-22T13:39:50;5.82;;;2.00;;
72575;SDS011;60613;48.658;2.328;2023-11-22T13:42:16;6.38;;;2.28;;
72575;SDS011;60613;48.658;2.328;2023-11-22T13:44:41;6.82;;;2.40;;
72575;SDS011;60613;48.658;2.328;2023-11-22T13:47:09;5.82;;;2.20;;
72575;SDS011;60613;48.658;2.328;2023-11-22T13:49:35;5.40;;;2.00;;
72575;SDS011;60613;48.658;2.328;2023-11-22T13:52:02;5.28;;;1.83;;
72575;SDS011;60613;48.658;2.328;2023-11-22T13:54:28;5.20;;;1.75;;
72575;SDS011;60613;48.658;2.328;2023-11-22T13:56:53;6.47;;;2.10;;
72575;SDS011;60613;48.658;2.328;2023-11-22T13:59:19;5.88;;;1.88;;
72575;SDS011;60613;48.658;2.328;2023-11-22T14:01:45;5.63;;;2.03;;
72575;SDS011;60613;48.658;2.328;2023-11-22T14:04:11;5.75;;;2.03;;
72575;SDS011;60613;48.658;2.328;2023-11-22T14:06:36;7.38;;;2.00;;
72575;SDS011;60613;48.658;2.328;2023-11-22T14:09:02;5.70;;;2.00;;
72575;SDS011;60613;48.658;2.328;2023-11-22T14:11:28;5.25;;;1.92;;
72575;SDS011;60613;48.658;2.328;2023-11-22T14:13:54;6.28;;;2.00;;
72575;SDS011;60613;48.658;2.328;2023-11-22T14:16:20;4.53;;;1.90;;
72575;SDS011;60613;48.658;2.328;2023-11-22T14:18:46;5.35;;;2.00;;
72575;SDS011;60613;48.658;2.328;2023-11-22T14:21:11;5.50;;;2.00;;
72575;SDS011;60613;48.658;2.328;2023-11-22T14:23:37;6.78;;;2.08;;
72575;SDS011;60613;48.658;2.328;2023-11-22T14:26:03;6.77;;;2.20;;
72575;SDS011;60613;48.658;2.328;2023-11-22T14:28:28;5.95;;;2.00;;
72575;SDS011;60613;48.658;2.328;2023-11-22T14:30:55;6.10;;;1.80;;
72575;SDS011;60613;48.658;2.328;2023-11-22T14:33:20;5.40;;;1.97;;
72575;SDS011;60613;48.658;2.328;2023-11-22T14:35:46;6.05;;;2.00;;
72575;SDS011;60613;48.658;2.328;2023-11-22T14:38:12;6.10;;;2.20;;
72575;SDS011;60613;48.658;2.328;2023-11-22T14:40:38;6.07;;;1.80;;
72575;SDS011;60613;48.658;2.328;2023-11-22T14:43:05;6.68;;;2.00;;
72575;SDS011;60613;48.658;2.328;2023-11-22T14:45:32;6.28;;;1.80;;
72575;SDS011;60613;48.658;2.328;2023-11-22T14:47:58;6.07;;;2.00;;
72575;SDS011;60613;48.658;2.328;2023-11-22T14:50:24;5.07;;;1.70;;
72575;SDS011;60613;48.658;2.328;2023-11-22T14:52:53;7.60;;;2.13;;
72575;SDS011;60613;48.658;2.328;2023-11-22T14:55:20;7.13;;;2.40;;
72575;SDS011;60613;48.658;2.328;2023-11-22T14:57:47;8.27;;;2.13;;
72575;SDS011;60613;48.658;2.328;2023-11-22T15:00:15;6.93;;;2.37;;
72575;SDS011;60613;48.658;2.328;2023-11-22T15:02:41;6.50;;;2.33;;
72575;SDS011;60613;48.658;2.328;2023-11-22T15:05:19;6.85;;;2.20;;
72575;SDS011;60613;48.658;2.328;2023-11-22T15:07:45;6.57;;;2.33;;
72575;SDS011;60613;48.658;2.328;2023-11-22T15:10:11;6.93;;;2.38;;
72575;SDS011;60613;48.658;2.328;2023-11-22T15:12:37;9.70;;;2.50;;
72575;SDS011;60613;48.658;2.328;2023-11-22T15:15:05;7.43;;;2.50;;
72575;SDS011;60613;48.658;2.328;2023-11-22T15:17:32;6.07;;;2.33;;
72575;SDS011;60613;48.658;2.328;2023-11-22T15:19:58;6.18;;;2.35;;
72575;SDS011;60613;48.658;2.328;2023-11-22T15:22:23;7.77;;;2.37;;
72575;SDS011;60613;48.658;2.328;2023-11-22T15:24:49;7.00;;;2.33;;
72575;SDS011;60613;48.658;2.328;2023-11-22T15:27:15;7.83;;;2.70;;
72575;SDS011;60613;48.658;2.328;2023-11-22T15:29:40;7.93;;;2.60;;
72575;SDS011;60613;48.658;2.328;2023-11-22T15:32:06;6.72;;;2.58;;
72575;SDS011;60613;48.658;2.328;2023-11-22T15:34:31;6.50;;;2.73;;
72575;SDS011;60613;48.658;2.328;2023-11-22T15:36:57;12.93;;;2.90;;
72575;SDS011;60613;48.658;2.328;2023-11-22T15:39:23;10.13;;;3.47;;
72575;SDS011;60613;48.658;2.328;2023-11-22T15:41:49;9.02;;;3.20;;
72575;SDS011;60613;48.658;2.328;2023-11-22T15:44:16;7.95;;;2.83;;
72575;SDS011;60613;48.658;2.328;2023-11-22T15:46:41;7.73;;;3.00;;
72575;SDS011;60613;48.658;2.328;2023-11-22T15:49:07;8.35;;;2.90;;
72575;SDS011;60613;48.658;2.328;2023-11-22T15:51:34;7.57;;;2.85;;
72575;SDS011;60613;48.658;2.328;2023-11-22T15:54:02;8.33;;;3.00;;
72575;SDS011;60613;48.658;2.328;2023-11-22T15:56:28;8.15;;;2.80;;
72575;SDS011;60613;48.658;2.328;2023-11-22T15:58:55;6.97;;;2.78;;
72575;SDS011;60613;48.658;2.328;2023-11-22T16:01:24;8.68;;;3.00;;
72575;SDS011;60613;48.658;2.328;2023-11-22T16:03:53;7.40;;;2.88;;
72575;SDS011;60613;48.658;2.328;2023-11-22T16:06:19;8.10;;;3.30;;
72575;SDS011;60613;48.658;2.328;2023-11-22T16:08:45;8.00;;;3.08;;
72575;SDS011;60613;48.658;2.328;2023-11-22T16:11:11;7.70;;;3.60;;
72575;SDS011;60613;48.658;2.328;2023-11-22T16:13:37;10.67;;;4.20;;
72575;SDS011;60613;48.658;2.328;2023-11-22T16:16:02;13.90;;;6.07;;
72575;SDS011;60613;48.658;2.328;2023-11-22T16:18:28;14.47;;;6.70;;
72575;SDS011;60613;48.658;2.328;2023-11-22T16:20:54;17.52;;;7.35;;
72575;SDS011;60613;48.658;2.328;2023-11-22T16:23:21;22.03;;;8.37;;
72575;SDS011;60613;48.658;2.328;2023-11-22T16:25:47;22.52;;;9.85;;
72575;SDS011;60613;48.658;2.328;2023-11-22T16:28:13;27.93;;;11.93;;
72575;SDS011;60613;48.658;2.328;2023-11-22T16:30:39;30.40;;;12.73;;
72575;SDS011;60613;48.658;2.328;2023-11-22T16:33:04;30.85;;;13.25;;
72575;SDS011;60613;48.658;2.328;2023-11-22T16:35:30;33.07;;;13.50;;
72575;SDS011;60613;48.658;2.328;2023-11-22T16:37:56;34.05;;;14.50;;
72575;SDS011;60613;48.658;2.328;2023-11-22T16:40:24;37.70;;;15.52;;
72575;SDS011;60613;48.658;2.328;2023-11-22T16:42:50;29.33;;;12.20;;
72575;SDS011;60613;48.658;2.328;2023-11-22T16:45:15;41.17;;;16.75;;
72575;SDS011;60613;48.658;2.328;2023-11-22T16:47:41;40.27;;;16.53;;
72575;SDS011;60613;48.658;2.328;2023-11-22T16:50:07;38.00;;;16.60;;
72575;SDS011;60613;48.658;2.328;2023-11-22T16:52:34;41.30;;;17.00;;
72575;SDS011;60613;48.658;2.328;2023-11-22T16:55:00;42.63;;;17.87;;
72575;SDS011;60613;48.658;2.328;2023-11-22T16:57:26;32.50;;;14.10;;
72575;SDS011;60613;48.658;2.328;2023-11-22T16:59:51;37.17;;;15.43;;
72575;SDS011;60613;48.658;2.328;2023-11-22T17:02:17;36.05;;;15.80;;
72575;SDS011;60613;48.658;2.328;2023-11-22T17:04:43;30.57;;;13.20;;
72575;SDS011;60613;48.658;2.328;2023-11-22T17:07:10;32.88;;;13.27;;
72575;SDS011;60613;48.658;2.328;2023-11-22T17:09:36;31.00;;;13.50;;
72575;SDS011;60613;48.658;2.328;2023-11-22T17:12:02;30.37;;;12.73;;
72575;SDS011;60613;48.658;2.328;2023-11-22T17:14:29;27.67;;;12.60;;
72575;SDS011;60613;48.658;2.328;2023-11-22T17:16:55;28.58;;;12.50;;
72575;SDS011;60613;48.658;2.328;2023-11-22T17:19:21;29.42;;;13.70;;
72575;SDS011;60613;48.658;2.328;2023-11-22T17:21:47;27.17;;;12.50;;
72575;SDS011;60613;48.658;2.328;2023-11-22T17:24:14;28.75;;;12.70;;
72575;SDS011;60613;48.658;2.328;2023-11-22T17:26:42;27.70;;;12.82;;
72575;SDS011;60613;48.658;2.328;2023-11-22T17:29:07;26.90;;;12.67;;
72575;SDS011;60613;48.658;2.328;2023-11-22T17:31:33;26.73;;;11.43;;
72575;SDS011;60613;48.658;2.328;2023-11-22T17:33:58;26.87;;;10.90;;
72575;SDS011;60613;48.658;2.328;2023-11-22T17:36:24;26.17;;;11.27;;
72575;SDS011;60613;48.658;2.328;2023-11-22T17:38:50;24.67;;;11.37;;
72575;SDS011;60613;48.658;2.328;2023-11-22T17:41:15;26.63;;;11.23;;
72575;SDS011;60613;48.658;2.328;2023-11-22T17:43:41;24.20;;;11.03;;
72575;SDS011;60613;48.658;2.328;2023-11-22T17:46:07;24.73;;;10.73;;
72575;SDS011;60613;48.658;2.328;2023-11-22T17:48:33;25.93;;;10.43;;
72575;SDS011;60613;48.658;2.328;2023-11-22T17:51:00;22.58;;;10.10;;
72575;SDS011;60613;48.658;2.328;2023-11-22T17:53:26;19.97;;;9.93;;
72575;SDS011;60613;48.658;2.328;2023-11-22T17:55:52;20.20;;;9.05;;
72575;SDS011;60613;48.658;2.328;2023-11-22T17:58:18;20.63;;;10.05;;
72575;SDS011;60613;48.658;2.328;2023-11-22T18:00:46;19.92;;;9.27;;
72575;SDS011;60613;48.658;2.328;2023-11-22T18:03:12;18.17;;;8.87;;
72575;SDS011;60613;48.658;2.328;2023-11-22T18:05:38;20.53;;;9.13;;
72575;SDS011;60613;48.658;2.328;2023-11-22T18:08:03;18.15;;;9.00;;
72575;SDS011;60613;48.658;2.328;2023-11-22T18:10:29;18.23;;;8.63;;
72575;SDS011;60613;48.658;2.328;2023-11-22T18:12:55;18.73;;;9.18;;
72575;SDS011;60613;48.658;2.328;2023-11-22T18:15:24;18.30;;;8.75;;
72575;SDS011;60613;48.658;2.328;2023-11-22T18:17:51;15.57;;;8.35;;
72575;SDS011;60613;48.658;2.328;2023-11-22T18:20:17;19.15;;;8.63;;
72575;SDS011;60613;48.658;2.328;2023-11-22T18:22:43;18.27;;;8.80;;
72575;SDS011;60613;48.658;2.328;2023-11-22T18:25:09;17.40;;;8.82;;
72575;SDS011;60613;48.658;2.328;2023-11-22T18:27:36;16.45;;;8.50;;
72575;SDS011;60613;48.658;2.328;2023-11-22T18:30:02;19.83;;;9.00;;
72575;SDS011;60613;48.658;2.328;2023-11-22T18:32:28;16.43;;;8.80;;
72575;SDS011;60613;48.658;2.328;2023-11-22T18:34:55;17.35;;;9.00;;
72575;SDS011;60613;48.658;2.328;2023-11-22T18:37:21;19.60;;;9.32;;
72575;SDS011;60613;48.658;2.328;2023-11-22T18:39:47;17.77;;;9.35;;
72575;SDS011;60613;48.658;2.328;2023-11-22T18:42:13;17.52;;;10.27;;
72575;SDS011;60613;48.658;2.328;2023-11-22T18:44:39;17.57;;;10.00;;
72575;SDS011;60613;48.658;2.328;2023-11-22T18:47:06;18.38;;;9.98;;
72575;SDS011;60613;48.658;2.328;2023-11-22T18:49:35;19.02;;;9.65;;
72575;SDS011;60613;48.658;2.328;2023-11-22T18:52:01;17.05;;;9.57;;
72575;SDS011;60613;48.658;2.328;2023-11-22T18:54:28;17.00;;;10.13;;
72575;SDS011;60613;48.658;2.328;2023-11-22T18:56:54;16.33;;;9.60;;
72575;SDS011;60613;48.658;2.328;2023-11-22T18:59:20;18.17;;;10.95;;
72575;SDS011;60613;48.658;2.328;2023-11-22T19:01:46;19.30;;;11.90;;
72575;SDS011;60613;48.658;2.328;2023-11-22T19:04:12;17.45;;;11.55;;
72575;SDS011;60613;48.658;2.328;2023-11-22T19:06:38;17.90;;;10.98;;
72575;SDS011;60613;48.658;2.328;2023-11-22T19:09:04;18.47;;;10.90;;
72575;SDS011;60613;48.658;2.328;2023-11-22T19:11:39;18.80;;;11.32;;
72575;SDS011;60613;48.658;2.328;2023-11-22T19:14:09;18.25;;;10.25;;
72575;SDS011;60613;48.658;2.328;2023-11-22T19:16:35;15.98;;;9.57;;
72575;SDS011;60613;48.658;2.328;2023-11-22T19:19:01;16.87;;;9.80;;
72575;SDS011;60613;48.658;2.328;2023-11-22T19:21:26;16.88;;;9.35;;
72575;SDS011;60613;48.658;2.328;2023-11-22T19:23:52;15.10;;;9.73;;
72575;SDS011;60613;48.658;2.328;2023-11-22T19:26:24;15.52;;;9.38;;
72575;SDS011;60613;48.658;2.328;2023-11-22T19:28:50;17.38;;;10.15;;
72575;SDS011;60613;48.658;2.328;2023-11-22T19:31:17;15.27;;;9.85;;
72575;SDS011;60613;48.658;2.328;2023-11-22T19:33:45;15.20;;;9.70;;
72575;SDS011;60613;48.658;2.328;2023-11-22T19:36:20;16.00;;;9.67;;
72575;SDS011;60613;48.658;2.328;2023-11-22T19:38:49;15.15;;;10.07;;
72575;SDS011;60613;48.658;2.328;2023-11-22T19:41:17;15.88;;;10.10;;
72575;SDS011;60613;48.658;2.328;2023-11-22T19:43:43;14.50;;;9.03;;
72575;SDS011;60613;48.658;2.328;2023-11-22T19:46:08;15.48;;;9.35;;
72575;SDS011;60613;48.658;2.328;2023-11-22T19:48:35;16.45;;;10.23;;
72575;SDS011;60613;48.658;2.328;2023-11-22T19:51:00;15.10;;;9.57;;
72575;SDS011;60613;48.658;2.328;2023-11-22T19:53:26;15.02;;;9.68;;
72575;SDS011;60613;48.658;2.328;2023-11-22T19:55:52;14.43;;;9.60;;
72575;SDS011;60613;48.658;2.328;2023-11-22T19:58:17;13.77;;;9.35;;
